sensor_id;sensor_type;location;lat;lon;timestamp;pressure;altitude;pressure_sealevel;temperature;humidity
78198;BME280;67472;51.554;7.812;2024-02-21T00:00:19;101391.50;;;10.02;100.00
78198;BME280;67472;51.554;7.812;2024-02-21T00:03:05;101388.63;;;9.93;100.00
78198;BME280;67472;51.554;7.812;2024-02-21T00:05:51;101378.31;;;9.77;100.00
78198;BME280;67472;51.554;7.812;2024-02-21T00:08:38;101378.63;;;9.98;100.00
78198;BME280;67472;51.554;7.812;2024-02-21T00:11:24;101376.63;;;9.89;100.00
78198;BME280;67472;51.554;7.812;2024-02-21T00:14:12;101389.50;;;9.93;100.00
78198;BME280;67472;51.554;7.812;2024-02-21T00:16:58;101375.56;;;9.91;100.00
78198;BME280;67472;51.554;7.812;2024-02-21T00:19:44;101365.84;;;9.79;100.00
78198;BME280;67472;51.554;7.812;2024-02-21T00:22:30;101354.56;;;9.77;100.00
78198;BME280;67472;51.554;7.812;2024-02-21T00:25:18;101361.94;;;9.85;100.00
78198;BME280;67472;51.554;7.812;2024-02-21T00:28:05;101361.31;;;9.94;100.00
78198;BME280;67472;51.554;7.812;2024-02-21T00:30:52;101344.19;;;9.87;100.00
78198;BME280;67472;51.554;7.812;2024-02-21T00:33:39;101343.59;;;9.83;100.00
78198;BME280;67472;51.554;7.812;2024-02-21T00:36:26;101346.03;;;9.86;100.00
78198;BME280;67472;51.554;7.812;2024-02-21T00:39:12;101335.75;;;9.82;100.00
78198;BME280;67472;51.554;7.812;2024-02-21T00:41:58;101327.53;;;9.74;100.00
78198;BME280;67472;51.554;7.812;2024-02-21T00:44:45;101333.13;;;9.82;100.00
78198;BME280;67472;51.554;7.812;2024-02-21T00:47:32;101341.13;;;9.93;100.00
78198;BME280;67472;51.554;7.812;2024-02-21T00:50:18;101321.84;;;9.80;100.00
78198;BME280;67472;51.554;7.812;2024-02-21T00:53:05;101314.66;;;9.82;100.00
78198;BME280;67472;51.554;7.812;2024-02-21T00:55:51;101309.59;;;9.79;100.00
78198;BME280;67472;51.554;7.812;2024-02-21T00:58:37;101306.31;;;9.88;100.00
78198;BME280;67472;51.554;7.812;2024-02-21T01:01:23;101296.19;;;9.94;100.00
78198;BME280;67472;51.554;7.812;2024-02-21T01:04:11;101296.06;;;10.08;100.00
78198;BME280;67472;51.554;7.812;2024-02-21T01:06:57;101300.75;;;9.92;100.00
78198;BME280;67472;51.554;7.812;2024-02-21T01:09:43;101296.41;;;9.79;100.00
78198;BME280;67472;51.554;7.812;2024-02-21T01:12:29;101301.97;;;9.87;100.00
78198;BME280;67472;51.554;7.812;2024-02-21T01:15:15;101292.06;;;9.90;100.00
78198;BME280;67472;51.554;7.812;2024-02-21T01:18:01;101293.25;;;9.86;100.00
78198;BME280;67472;51.554;7.812;2024-02-21T01:20:49;101286.56;;;9.93;100.00
78198;BME280;67472;51.554;7.812;2024-02-21T01:23:36;101273.50;;;9.79;100.00
78198;BME280;67472;51.554;7.812;2024-02-21T01:26:23;101285.44;;;9.85;100.00
78198;BME280;67472;51.554;7.812;2024-02-21T01:29:09;101268.00;;;9.82;100.00
78198;BME280;67472;51.554;7.812;2024-02-21T01:31:55;101269.63;;;9.72;100.00
78198;BME280;67472;51.554;7.812;2024-02-21T01:34:41;101268.97;;;9.81;100.00
78198;BME280;67472;51.554;7.812;2024-02-21T01:37:28;101265.16;;;9.85;100.00
78198;BME280;67472;51.554;7.812;2024-02-21T01:40:15;101255.47;;;9.73;100.00
78198;BME280;67472;51.554;7.812;2024-02-21T01:43:01;101243.63;;;9.91;100.00
78198;BME280;67472;51.554;7.812;2024-02-21T01:45:49;101244.47;;;9.92;100.00
78198;BME280;67472;51.554;7.812;2024-02-21T01:48:36;101241.75;;;9.81;100.00
78198;BME280;67472;51.554;7.812;2024-02-21T01:51:22;101244.28;;;9.82;100.00
78198;BME280;67472;51.554;7.812;2024-02-21T01:54:11;101238.34;;;9.91;100.00
78198;BME280;67472;51.554;7.812;2024-02-21T01:56:59;101238.66;;;9.87;100.00
78198;BME280;67472;51.554;7.812;2024-02-21T01:59:46;101232.44;;;9.88;100.00
78198;BME280;67472;51.554;7.812;2024-02-21T02:02:32;101234.78;;;9.92;100.00
78198;BME280;67472;51.554;7.812;2024-02-21T02:05:19;101232.28;;;10.02;100.00
78198;BME280;67472;51.554;7.812;2024-02-21T02:08:06;101220.94;;;9.89;100.00
78198;BME280;67472;51.554;7.812;2024-02-21T02:10:53;101225.88;;;9.93;100.00
78198;BME280;67472;51.554;7.812;2024-02-21T02:13:39;101226.22;;;9.89;100.00
78198;BME280;67472;51.554;7.812;2024-02-21T02:16:26;101216.94;;;9.83;100.00
78198;BME280;67472;51.554;7.812;2024-02-21T02:19:12;101212.47;;;9.96;100.00
78198;BME280;67472;51.554;7.812;2024-02-21T02:22:09;101202.75;;;9.97;100.00
78198;BME280;67472;51.554;7.812;2024-02-21T02:25:17;101201.06;;;9.96;100.00
78198;BME280;67472;51.554;7.812;2024-02-21T02:28:03;101198.97;;;10.01;100.00
78198;BME280;67472;51.554;7.812;2024-02-21T02:30:50;101190.28;;;9.99;100.00
78198;BME280;67472;51.554;7.812;2024-02-21T02:33:36;101181.53;;;9.98;100.00
78198;BME280;67472;51.554;7.812;2024-02-21T02:36:23;101174.59;;;9.85;100.00
78198;BME280;67472;51.554;7.812;2024-02-21T02:39:09;101175.97;;;9.90;100.00
78198;BME280;67472;51.554;7.812;2024-02-21T02:41:56;101173.16;;;10.04;100.00
78198;BME280;67472;51.554;7.812;2024-02-21T02:44:42;101164.88;;;9.98;100.00
78198;BME280;67472;51.554;7.812;2024-02-21T02:47:28;101156.03;;;9.86;100.00
78198;BME280;67472;51.554;7.812;2024-02-21T02:50:15;101154.00;;;9.90;100.00
78198;BME280;67472;51.554;7.812;2024-02-21T02:53:02;101147.28;;;9.86;100.00
78198;BME280;67472;51.554;7.812;2024-02-21T02:55:48;101138.56;;;9.73;100.00
78198;BME280;67472;51.554;7.812;2024-02-21T02:58:35;101128.75;;;9.75;100.00
78198;BME280;67472;51.554;7.812;2024-02-21T03:01:22;101140.13;;;9.75;100.00
78198;BME280;67472;51.554;7.812;2024-02-21T03:04:07;101126.66;;;9.67;100.00
78198;BME280;67472;51.554;7.812;2024-02-21T03:06:53;101128.06;;;9.60;100.00
78198;BME280;67472;51.554;7.812;2024-02-21T03:09:40;101122.03;;;9.58;100.00
78198;BME280;67472;51.554;7.812;2024-02-21T03:12:27;101122.81;;;9.47;100.00
78198;BME280;67472;51.554;7.812;2024-02-21T03:15:15;101119.50;;;9.56;100.00
78198;BME280;67472;51.554;7.812;2024-02-21T03:18:01;101121.94;;;9.47;100.00
78198;BME280;67472;51.554;7.812;2024-02-21T03:20:48;101123.22;;;9.41;100.00
78198;BME280;67472;51.554;7.812;2024-02-21T03:23:34;101120.38;;;9.44;100.00
78198;BME280;67472;51.554;7.812;2024-02-21T03:26:20;101123.44;;;9.51;100.00
78198;BME280;67472;51.554;7.812;2024-02-21T03:29:06;101123.88;;;9.45;100.00
78198;BME280;67472;51.554;7.812;2024-02-21T03:31:54;101120.66;;;9.52;100.00
78198;BME280;67472;51.554;7.812;2024-02-21T03:34:41;101117.13;;;9.41;100.00
78198;BME280;67472;51.554;7.812;2024-02-21T03:37:27;101113.97;;;9.36;100.00
78198;BME280;67472;51.554;7.812;2024-02-21T03:40:13;101118.59;;;9.45;100.00
78198;BME280;67472;51.554;7.812;2024-02-21T03:42:59;101103.00;;;9.42;100.00
78198;BME280;67472;51.554;7.812;2024-02-21T03:45:45;101107.75;;;9.37;100.00
78198;BME280;67472;51.554;7.812;2024-02-21T03:48:33;101096.94;;;9.52;100.00
78198;BME280;67472;51.554;7.812;2024-02-21T03:51:19;101104.97;;;9.51;100.00
78198;BME280;67472;51.554;7.812;2024-02-21T03:54:05;101092.50;;;9.53;100.00
78198;BME280;67472;51.554;7.812;2024-02-21T03:56:51;101089.88;;;9.53;100.00
78198;BME280;67472;51.554;7.812;2024-02-21T03:59:37;101092.94;;;9.59;100.00
78198;BME280;67472;51.554;7.812;2024-02-21T04:02:24;101093.78;;;9.60;100.00
78198;BME280;67472;51.554;7.812;2024-02-21T04:05:15;101102.59;;;9.72;100.00
78198;BME280;67472;51.554;7.812;2024-02-21T04:08:04;101107.03;;;9.71;100.00
78198;BME280;67472;51.554;7.812;2024-02-21T04:10:51;101101.25;;;9.66;100.00
78198;BME280;67472;51.554;7.812;2024-02-21T04:13:37;101099.19;;;9.70;100.00
78198;BME280;67472;51.554;7.812;2024-02-21T04:16:23;101102.75;;;9.81;100.00
78198;BME280;67472;51.554;7.812;2024-02-21T04:19:10;101105.75;;;9.64;100.00
78198;BME280;67472;51.554;7.812;2024-02-21T04:21:57;101109.75;;;9.70;100.00
78198;BME280;67472;51.554;7.812;2024-02-21T04:24:44;101106.84;;;9.61;100.00
78198;BME280;67472;51.554;7.812;2024-02-21T04:27:30;101110.66;;;9.81;100.00
78198;BME280;67472;51.554;7.812;2024-02-21T04:30:17;101111.34;;;9.72;100.00
78198;BME280;67472;51.554;7.812;2024-02-21T04:33:03;101106.91;;;9.73;100.00
78198;BME280;67472;51.554;7.812;2024-02-21T04:35:49;101123.84;;;9.81;100.00
78198;BME280;67472;51.554;7.812;2024-02-21T04:38:38;101119.69;;;9.90;100.00
78198;BME280;67472;51.554;7.812;2024-02-21T04:41:25;101106.81;;;9.74;100.00
78198;BME280;67472;51.554;7.812;2024-02-21T04:44:11;101109.50;;;9.85;100.00
78198;BME280;67472;51.554;7.812;2024-02-21T04:46:57;101105.38;;;9.81;100.00
78198;BME280;67472;51.554;7.812;2024-02-21T04:49:43;101112.25;;;9.84;100.00
78198;BME280;67472;51.554;7.812;2024-02-21T04:52:29;101117.91;;;9.90;100.00
78198;BME280;67472;51.554;7.812;2024-02-21T04:55:17;101115.81;;;9.95;100.00
78198;BME280;67472;51.554;7.812;2024-02-21T04:58:03;101114.81;;;9.96;100.00
78198;BME280;67472;51.554;7.812;2024-02-21T05:00:50;101109.56;;;9.96;100.00
78198;BME280;67472;51.554;7.812;2024-02-21T05:03:36;101106.19;;;9.94;100.00
78198;BME280;67472;51.554;7.812;2024-02-21T05:06:22;101106.81;;;9.98;100.00
78198;BME280;67472;51.554;7.812;2024-02-21T05:09:09;101109.81;;;10.04;100.00
78198;BME280;67472;51.554;7.812;2024-02-21T05:11:56;101109.81;;;10.17;100.00
78198;BME280;67472;51.554;7.812;2024-02-21T05:14:44;101102.50;;;10.20;100.00
78198;BME280;67472;51.554;7.812;2024-02-21T05:17:30;101089.16;;;9.98;100.00
78198;BME280;67472;51.554;7.812;2024-02-21T05:20:17;101088.34;;;9.98;100.00
78198;BME280;67472;51.554;7.812;2024-02-21T05:23:03;101089.50;;;9.94;100.00
78198;BME280;67472;51.554;7.812;2024-02-21T05:25:49;101096.47;;;9.95;100.00
78198;BME280;67472;51.554;7.812;2024-02-21T05:28:37;101087.53;;;10.08;100.00
78198;BME280;67472;51.554;7.812;2024-02-21T05:31:23;101079.91;;;9.93;100.00
78198;BME280;67472;51.554;7.812;2024-02-21T05:34:11;101064.91;;;9.93;100.00
78198;BME280;67472;51.554;7.812;2024-02-21T05:36:57;101072.13;;;9.91;100.00
78198;BME280;67472;51.554;7.812;2024-02-21T05:39:44;101064.47;;;9.99;100.00
78198;BME280;67472;51.554;7.812;2024-02-21T05:42:30;101068.31;;;9.95;100.00
78198;BME280;67472;51.554;7.812;2024-02-21T05:45:18;101061.09;;;9.97;100.00
78198;BME280;67472;51.554;7.812;2024-02-21T05:48:05;101072.97;;;9.92;100.00
78198;BME280;67472;51.554;7.812;2024-02-21T05:50:51;101062.63;;;9.89;100.00
78198;BME280;67472;51.554;7.812;2024-02-21T05:53:37;101066.72;;;9.93;100.00
78198;BME280;67472;51.554;7.812;2024-02-21T05:56:25;101063.06;;;9.83;100.00
78198;BME280;67472;51.554;7.812;2024-02-21T05:59:12;101060.53;;;9.81;100.00
78198;BME280;67472;51.554;7.812;2024-02-21T06:01:59;101058.72;;;10.05;100.00
78198;BME280;67472;51.554;7.812;2024-02-21T06:04:47;101052.47;;;9.95;100.00
78198;BME280;67472;51.554;7.812;2024-02-21T06:07:34;101057.97;;;9.92;100.00
78198;BME280;67472;51.554;7.812;2024-02-21T06:10:21;101058.25;;;10.00;100.00
78198;BME280;67472;51.554;7.812;2024-02-21T06:13:07;101037.41;;;10.08;100.00
78198;BME280;67472;51.554;7.812;2024-02-21T06:15:54;101033.19;;;10.06;100.00
78198;BME280;67472;51.554;7.812;2024-02-21T06:18:41;101032.41;;;9.93;100.00
78198;BME280;67472;51.554;7.812;2024-02-21T06:21:29;101026.44;;;10.02;100.00
78198;BME280;67472;51.554;7.812;2024-02-21T06:24:15;101016.16;;;10.10;100.00
78198;BME280;67472;51.554;7.812;2024-02-21T06:27:01;101011.53;;;9.90;100.00
78198;BME280;67472;51.554;7.812;2024-02-21T06:29:47;101014.47;;;9.98;100.00
78198;BME280;67472;51.554;7.812;2024-02-21T06:32:33;101004.25;;;10.04;100.00
78198;BME280;67472;51.554;7.812;2024-02-21T06:35:21;101004.00;;;9.96;100.00
78198;BME280;67472;51.554;7.812;2024-02-21T06:38:09;101002.22;;;9.97;100.00
78198;BME280;67472;51.554;7.812;2024-02-21T06:40:55;100999.53;;;9.86;100.00
78198;BME280;67472;51.554;7.812;2024-02-21T06:43:43;100994.53;;;9.94;100.00
78198;BME280;67472;51.554;7.812;2024-02-21T06:46:29;100980.88;;;10.00;100.00
78198;BME280;67472;51.554;7.812;2024-02-21T06:49:17;100977.16;;;10.02;100.00
78198;BME280;67472;51.554;7.812;2024-02-21T06:52:05;100965.28;;;10.08;100.00
78198;BME280;67472;51.554;7.812;2024-02-21T06:54:51;100948.81;;;9.93;100.00
78198;BME280;67472;51.554;7.812;2024-02-21T06:57:37;100955.84;;;10.16;100.00
78198;BME280;67472;51.554;7.812;2024-02-21T07:00:23;100947.47;;;10.23;100.00
78198;BME280;67472;51.554;7.812;2024-02-21T07:03:11;100955.34;;;10.11;100.00
78198;BME280;67472;51.554;7.812;2024-02-21T07:05:57;100951.25;;;10.07;100.00
78198;BME280;67472;51.554;7.812;2024-02-21T07:08:44;100950.66;;;10.04;100.00
78198;BME280;67472;51.554;7.812;2024-02-21T07:11:30;100956.41;;;9.98;100.00
78198;BME280;67472;51.554;7.812;2024-02-21T07:14:17;100956.41;;;10.09;100.00
78198;BME280;67472;51.554;7.812;2024-02-21T07:17:03;100957.97;;;10.11;100.00
78198;BME280;67472;51.554;7.812;2024-02-21T07:19:49;100958.16;;;10.21;100.00
78198;BME280;67472;51.554;7.812;2024-02-21T07:22:36;100955.00;;;10.16;100.00
78198;BME280;67472;51.554;7.812;2024-02-21T07:25:23;100959.88;;;10.33;100.00
78198;BME280;67472;51.554;7.812;2024-02-21T07:28:09;100965.09;;;10.22;100.00
78198;BME280;67472;51.554;7.812;2024-02-21T07:30:56;100968.59;;;10.23;100.00
78198;BME280;67472;51.554;7.812;2024-02-21T07:33:42;100957.41;;;10.19;100.00
78198;BME280;67472;51.554;7.812;2024-02-21T07:36:29;100953.13;;;10.18;100.00
78198;BME280;67472;51.554;7.812;2024-02-21T07:39:16;100951.41;;;10.17;100.00
78198;BME280;67472;51.554;7.812;2024-02-21T07:42:04;100954.69;;;10.32;100.00
78198;BME280;67472;51.554;7.812;2024-02-21T07:44:51;100941.94;;;10.26;100.00
78198;BME280;67472;51.554;7.812;2024-02-21T07:47:37;100938.59;;;10.24;100.00
78198;BME280;67472;51.554;7.812;2024-02-21T07:50:23;100939.56;;;10.34;100.00
78198;BME280;67472;51.554;7.812;2024-02-21T07:53:09;100943.41;;;10.30;100.00
78198;BME280;67472;51.554;7.812;2024-02-21T07:55:55;100932.94;;;10.28;100.00
78198;BME280;67472;51.554;7.812;2024-02-21T07:58:43;100931.88;;;10.31;100.00
78198;BME280;67472;51.554;7.812;2024-02-21T08:01:29;100932.38;;;10.36;100.00
78198;BME280;67472;51.554;7.812;2024-02-21T08:04:15;100917.72;;;10.43;100.00
78198;BME280;67472;51.554;7.812;2024-02-21T08:07:01;100917.63;;;10.44;100.00
78198;BME280;67472;51.554;7.812;2024-02-21T08:09:48;100930.81;;;10.55;100.00
78198;BME280;67472;51.554;7.812;2024-02-21T08:12:35;100919.75;;;10.61;100.00
78198;BME280;67472;51.554;7.812;2024-02-21T08:15:22;100913.03;;;10.57;100.00
78198;BME280;67472;51.554;7.812;2024-02-21T08:18:13;100910.03;;;10.51;100.00
78198;BME280;67472;51.554;7.812;2024-02-21T08:20:59;100911.47;;;10.66;100.00
78198;BME280;67472;51.554;7.812;2024-02-21T08:23:45;100909.03;;;10.74;100.00
78198;BME280;67472;51.554;7.812;2024-02-21T08:26:40;100898.13;;;10.78;100.00
78198;BME280;67472;51.554;7.812;2024-02-21T08:29:26;100892.59;;;10.82;100.00
78198;BME280;67472;51.554;7.812;2024-02-21T08:32:13;100896.34;;;10.79;100.00
78198;BME280;67472;51.554;7.812;2024-02-21T08:34:59;100898.50;;;10.85;100.00
78198;BME280;67472;51.554;7.812;2024-02-21T08:37:46;100892.84;;;10.78;100.00
78198;BME280;67472;51.554;7.812;2024-02-21T08:40:33;100885.38;;;10.84;100.00
78198;BME280;67472;51.554;7.812;2024-02-21T08:43:19;100866.00;;;10.94;100.00
78198;BME280;67472;51.554;7.812;2024-02-21T08:46:06;100870.22;;;10.86;100.00
78198;BME280;67472;51.554;7.812;2024-02-21T08:48:53;100863.88;;;10.88;100.00
78198;BME280;67472;51.554;7.812;2024-02-21T08:51:40;100875.63;;;10.95;100.00
78198;BME280;67472;51.554;7.812;2024-02-21T08:54:27;100873.44;;;11.00;100.00
78198;BME280;67472;51.554;7.812;2024-02-21T08:57:13;100859.41;;;11.00;100.00
78198;BME280;67472;51.554;7.812;2024-02-21T09:00:00;100855.88;;;11.10;100.00
78198;BME280;67472;51.554;7.812;2024-02-21T09:02:46;100842.06;;;11.07;100.00
78198;BME280;67472;51.554;7.812;2024-02-21T09:05:34;100851.00;;;11.26;100.00
78198;BME280;67472;51.554;7.812;2024-02-21T09:08:20;100845.81;;;11.04;100.00
78198;BME280;67472;51.554;7.812;2024-02-21T09:11:07;100847.34;;;11.07;100.00
78198;BME280;67472;51.554;7.812;2024-02-21T09:13:53;100849.03;;;11.08;100.00
78198;BME280;67472;51.554;7.812;2024-02-21T09:16:39;100853.47;;;11.07;100.00
78198;BME280;67472;51.554;7.812;2024-02-21T09:19:25;100857.13;;;10.95;100.00
78198;BME280;67472;51.554;7.812;2024-02-21T09:22:13;100854.91;;;11.11;100.00
78198;BME280;67472;51.554;7.812;2024-02-21T09:24:59;100844.84;;;11.05;100.00
78198;BME280;67472;51.554;7.812;2024-02-21T09:27:45;100833.19;;;11.08;100.00
78198;BME280;67472;51.554;7.812;2024-02-21T09:30:31;100837.16;;;11.02;100.00
78198;BME280;67472;51.554;7.812;2024-02-21T09:33:18;100835.63;;;11.00;100.00
78198;BME280;67472;51.554;7.812;2024-02-21T09:36:05;100844.50;;;10.99;100.00
78198;BME280;67472;51.554;7.812;2024-02-21T09:38:53;100833.25;;;10.86;100.00
78198;BME280;67472;51.554;7.812;2024-02-21T09:41:45;100829.69;;;11.07;100.00
78198;BME280;67472;51.554;7.812;2024-02-21T09:44:36;100829.44;;;11.10;100.00
78198;BME280;67472;51.554;7.812;2024-02-21T09:47:27;100819.22;;;10.74;100.00
78198;BME280;67472;51.554;7.812;2024-02-21T09:50:19;100816.25;;;11.31;100.00
78198;BME280;67472;51.554;7.812;2024-02-21T09:53:07;100805.34;;;11.24;100.00
78198;BME280;67472;51.554;7.812;2024-02-21T09:55:55;100800.19;;;11.23;100.00
78198;BME280;67472;51.554;7.812;2024-02-21T09:58:42;100806.38;;;11.54;100.00
78198;BME280;67472;51.554;7.812;2024-02-21T10:01:28;100801.53;;;11.59;100.00
78198;BME280;67472;51.554;7.812;2024-02-21T10:04:15;100800.53;;;11.71;100.00
78198;BME280;67472;51.554;7.812;2024-02-21T10:07:01;100801.16;;;11.63;100.00
78198;BME280;67472;51.554;7.812;2024-02-21T10:09:49;100799.81;;;11.48;100.00
78198;BME280;67472;51.554;7.812;2024-02-21T10:12:37;100803.47;;;11.57;100.00
78198;BME280;67472;51.554;7.812;2024-02-21T10:15:33;100796.75;;;11.53;100.00
78198;BME280;67472;51.554;7.812;2024-02-21T10:18:19;100791.97;;;11.47;100.00
78198;BME280;67472;51.554;7.812;2024-02-21T10:21:06;100788.97;;;11.51;100.00
78198;BME280;67472;51.554;7.812;2024-02-21T10:23:53;100784.50;;;11.52;100.00
78198;BME280;67472;51.554;7.812;2024-02-21T10:26:39;100789.03;;;11.40;100.00
78198;BME280;67472;51.554;7.812;2024-02-21T10:29:26;100786.81;;;11.24;100.00
78198;BME280;67472;51.554;7.812;2024-02-21T10:32:13;100789.84;;;11.41;100.00
78198;BME280;67472;51.554;7.812;2024-02-21T10:35:01;100798.50;;;11.22;100.00
78198;BME280;67472;51.554;7.812;2024-02-21T10:37:49;100788.88;;;11.21;100.00
78198;BME280;67472;51.554;7.812;2024-02-21T10:40:40;100799.69;;;10.97;100.00
78198;BME280;67472;51.554;7.812;2024-02-21T10:43:27;100803.59;;;10.82;100.00
78198;BME280;67472;51.554;7.812;2024-02-21T10:46:18;100796.34;;;10.95;100.00
78198;BME280;67472;51.554;7.812;2024-02-21T10:49:10;100789.34;;;11.05;100.00
78198;BME280;67472;51.554;7.812;2024-02-21T10:52:06;100786.41;;;10.88;100.00
78198;BME280;67472;51.554;7.812;2024-02-21T10:54:58;100784.75;;;10.75;100.00
78198;BME280;67472;51.554;7.812;2024-02-21T10:57:45;100773.00;;;10.68;100.00
78198;BME280;67472;51.554;7.812;2024-02-21T11:00:33;100772.50;;;10.74;100.00
78198;BME280;67472;51.554;7.812;2024-02-21T11:03:21;100758.44;;;11.06;100.00
78198;BME280;67472;51.554;7.812;2024-02-21T11:06:09;100747.06;;;10.94;100.00
78198;BME280;67472;51.554;7.812;2024-02-21T11:09:01;100750.31;;;11.18;100.00
78198;BME280;67472;51.554;7.812;2024-02-21T11:11:49;100737.75;;;11.11;100.00
78198;BME280;67472;51.554;7.812;2024-02-21T11:14:38;100733.16;;;10.92;100.00
78198;BME280;67472;51.554;7.812;2024-02-21T11:17:26;100725.50;;;11.10;100.00
78198;BME280;67472;51.554;7.812;2024-02-21T11:20:14;100727.13;;;11.01;100.00
78198;BME280;67472;51.554;7.812;2024-02-21T11:23:01;100716.47;;;11.12;100.00
78198;BME280;67472;51.554;7.812;2024-02-21T11:25:47;100701.59;;;10.91;100.00
78198;BME280;67472;51.554;7.812;2024-02-21T11:28:33;100689.16;;;11.23;100.00
78198;BME280;67472;51.554;7.812;2024-02-21T11:31:21;100678.84;;;11.29;100.00
78198;BME280;67472;51.554;7.812;2024-02-21T11:34:09;100671.50;;;11.33;100.00
78198;BME280;67472;51.554;7.812;2024-02-21T11:36:57;100658.97;;;11.35;100.00
78198;BME280;67472;51.554;7.812;2024-02-21T11:39:43;100636.75;;;11.47;100.00
78198;BME280;67472;51.554;7.812;2024-02-21T11:42:30;100636.34;;;11.72;100.00
78198;BME280;67472;51.554;7.812;2024-02-21T11:45:17;100626.75;;;11.81;100.00
78198;BME280;67472;51.554;7.812;2024-02-21T11:48:06;100606.41;;;11.72;100.00
78198;BME280;67472;51.554;7.812;2024-02-21T11:50:53;100588.59;;;11.83;100.00
78198;BME280;67472;51.554;7.812;2024-02-21T11:53:42;100581.78;;;12.00;100.00
78198;BME280;67472;51.554;7.812;2024-02-21T11:56:28;100576.56;;;11.70;100.00
78198;BME280;67472;51.554;7.812;2024-02-21T11:59:14;100561.66;;;11.69;100.00
78198;BME280;67472;51.554;7.812;2024-02-21T12:02:01;100554.06;;;11.45;100.00
78198;BME280;67472;51.554;7.812;2024-02-21T12:04:48;100543.53;;;11.64;100.00
78198;BME280;67472;51.554;7.812;2024-02-21T12:07:36;100522.13;;;11.77;100.00
78198;BME280;67472;51.554;7.812;2024-02-21T12:10:26;100532.47;;;11.89;100.00
78198;BME280;67472;51.554;7.812;2024-02-21T12:13:12;100527.88;;;12.01;100.00
78198;BME280;67472;51.554;7.812;2024-02-21T12:15:58;100513.09;;;11.89;100.00
78198;BME280;67472;51.554;7.812;2024-02-21T12:18:44;100509.34;;;11.72;100.00
78198;BME280;67472;51.554;7.812;2024-02-21T12:21:32;100509.59;;;11.79;100.00
78198;BME280;67472;51.554;7.812;2024-02-21T12:24:23;100495.53;;;11.88;100.00
78198;BME280;67472;51.554;7.812;2024-02-21T12:27:10;100483.16;;;11.98;100.00
78198;BME280;67472;51.554;7.812;2024-02-21T12:29:57;100463.47;;;11.81;100.00
78198;BME280;67472;51.554;7.812;2024-02-21T12:32:43;100451.22;;;11.90;100.00
78198;BME280;67472;51.554;7.812;2024-02-21T12:35:29;100436.94;;;12.29;100.00
78198;BME280;67472;51.554;7.812;2024-02-21T12:38:18;100425.22;;;12.41;100.00
78198;BME280;67472;51.554;7.812;2024-02-21T12:41:05;100415.31;;;12.34;100.00
78198;BME280;67472;51.554;7.812;2024-02-21T12:43:53;100403.19;;;12.41;100.00
78198;BME280;67472;51.554;7.812;2024-02-21T12:46:41;100401.88;;;12.45;100.00
78198;BME280;67472;51.554;7.812;2024-02-21T12:49:27;100389.56;;;12.26;100.00
78198;BME280;67472;51.554;7.812;2024-02-21T12:52:14;100385.59;;;12.40;100.00
78198;BME280;67472;51.554;7.812;2024-02-21T12:55:00;100370.59;;;12.31;100.00
78198;BME280;67472;51.554;7.812;2024-02-21T12:57:48;100372.94;;;12.34;100.00
78198;BME280;67472;51.554;7.812;2024-02-21T13:00:35;100375.72;;;12.42;100.00
78198;BME280;67472;51.554;7.812;2024-02-21T13:03:22;100349.53;;;12.57;99.32
78198;BME280;67472;51.554;7.812;2024-02-21T13:06:08;100331.22;;;12.45;100.00
78198;BME280;67472;51.554;7.812;2024-02-21T13:08:55;100338.66;;;12.60;100.00
78198;BME280;67472;51.554;7.812;2024-02-21T13:11:42;100316.72;;;12.67;98.11
78198;BME280;67472;51.554;7.812;2024-02-21T13:14:29;100295.38;;;12.69;98.88
78198;BME280;67472;51.554;7.812;2024-02-21T13:17:19;100295.84;;;12.37;99.06
78198;BME280;67472;51.554;7.812;2024-02-21T13:20:08;100285.25;;;12.37;97.03
78198;BME280;67472;51.554;7.812;2024-02-21T13:22:55;100275.78;;;12.62;96.13
78198;BME280;67472;51.554;7.812;2024-02-21T13:25:41;100254.00;;;12.40;94.39
78198;BME280;67472;51.554;7.812;2024-02-21T13:28:28;100270.53;;;12.70;95.03
78198;BME280;67472;51.554;7.812;2024-02-21T13:31:15;100273.53;;;12.39;99.54
78198;BME280;67472;51.554;7.812;2024-02-21T13:34:03;100259.34;;;12.76;99.82
78198;BME280;67472;51.554;7.812;2024-02-21T13:36:49;100245.56;;;12.90;98.82
78198;BME280;67472;51.554;7.812;2024-02-21T13:39:36;100229.91;;;12.79;94.90
78198;BME280;67472;51.554;7.812;2024-02-21T13:42:22;100218.63;;;12.77;93.08
78198;BME280;67472;51.554;7.812;2024-02-21T13:45:09;100212.97;;;12.80;92.72
78198;BME280;67472;51.554;7.812;2024-02-21T13:47:56;100194.53;;;12.88;91.24
78198;BME280;67472;51.554;7.812;2024-02-21T13:50:44;100200.75;;;12.79;90.34
78198;BME280;67472;51.554;7.812;2024-02-21T13:53:30;100184.69;;;12.63;89.16
78198;BME280;67472;51.554;7.812;2024-02-21T13:56:16;100193.53;;;12.89;89.80
78198;BME280;67472;51.554;7.812;2024-02-21T13:59:03;100189.63;;;13.19;90.13
78198;BME280;67472;51.554;7.812;2024-02-21T14:01:50;100185.00;;;13.21;90.51
78198;BME280;67472;51.554;7.812;2024-02-21T14:04:36;100177.84;;;13.13;89.82
78198;BME280;67472;51.554;7.812;2024-02-21T14:07:23;100167.28;;;13.21;90.56
78198;BME280;67472;51.554;7.812;2024-02-21T14:10:09;100174.56;;;13.19;90.05
78198;BME280;67472;51.554;7.812;2024-02-21T14:12:56;100182.22;;;13.04;89.32
78198;BME280;67472;51.554;7.812;2024-02-21T14:15:44;100184.88;;;13.04;90.62
78198;BME280;67472;51.554;7.812;2024-02-21T14:18:33;100183.81;;;12.97;91.03
78198;BME280;67472;51.554;7.812;2024-02-21T14:21:19;100165.66;;;13.02;91.80
78198;BME280;67472;51.554;7.812;2024-02-21T14:24:06;100161.50;;;13.00;91.79
78198;BME280;67472;51.554;7.812;2024-02-21T14:26:53;100131.78;;;13.14;91.54